Time;durP1;ratioP1;P1;durP2;ratioP2;P2;SDS_P1;SDS_P2;PMS_P1;PMS_P2;Temp;Humidity;BMP_temperature;BMP_pressure;BME280_temperature;BME280_humidity;BME280_pressure;Samples;Min_cycle;Max_cycle;Signal;HPM_P1;HPM_P2
2022/08/16 00:01:00;;;;;;;10.93;9.02;;;17.90;99.90;;;;;;5054457;28;20033;-67
2022/08/16 00:03:26;;;;;;;11.13;8.90;;;17.80;99.90;;;;;;5053952;28;20025;-67
2022/08/16 00:05:52;;;;;;;12.70;9.35;;;17.90;99.90;;;;;;5054949;28;20039;-67
2022/08/16 00:08:18;;;;;;;12.23;8.75;;;17.80;99.90;;;;;;5052946;28;20113;-67
2022/08/16 00:10:44;;;;;;;13.73;8.80;;;17.80;99.90;;;;;;5054164;28;20029;-67
2022/08/16 00:13:11;;;;;;;11.57;9.20;;;17.80;99.90;;;;;;5054534;28;20123;-67
2022/08/16 00:15:44;;;;;;;10.10;8.50;;;17.80;99.90;;;;;;5053952;28;20029;-66
2022/08/16 00:18:10;;;;;;;10.55;9.18;;;17.60;99.90;;;;;;5053784;28;20116;-67
2022/08/16 00:20:39;;;;;;;12.65;9.35;;;17.70;99.90;;;;;;5053982;28;20393;-67
2022/08/16 00:23:05;;;;;;;13.50;9.95;;;17.70;99.90;;;;;;5054339;28;20025;-67
2022/08/16 00:25:32;;;;;;;11.10;8.63;;;17.70;99.90;;;;;;5053944;28;20025;-67
2022/08/16 00:27:58;;;;;;;9.88;8.63;;;17.50;99.90;;;;;;5053898;28;20032;-67
2022/08/16 00:30:23;;;;;;;9.52;8.32;;;17.30;99.90;;;;;;5054262;28;20397;-67
2022/08/16 00:32:53;;;;;;;9.88;7.72;;;17.20;99.90;;;;;;5053465;28;20032;-67
2022/08/16 00:35:31;;;;;;;14.77;9.30;;;17.30;99.90;;;;;;5053838;28;20029;-67
2022/08/16 00:37:56;;;;;;;13.25;8.60;;;17.40;99.90;;;;;;5052703;28;20032;-67
2022/08/16 00:40:44;;;;;;;9.30;8.07;;;17.40;99.90;;;;;;5053398;28;20037;-66
2022/08/16 00:43:16;;;;;;;12.48;9.15;;;17.40;99.90;;;;;;5053400;28;20049;-67
2022/08/16 00:46:06;;;;;;;13.50;8.82;;;17.40;99.90;;;;;;5053466;28;20021;-67
2022/08/16 00:48:32;;;;;;;11.25;8.50;;;17.30;99.90;;;;;;5053060;28;20040;-66
2022/08/16 00:50:59;;;;;;;12.63;8.85;;;17.40;99.90;;;;;;5053726;28;20056;-66
2022/08/16 00:53:26;;;;;;;10.23;8.40;;;17.30;99.90;;;;;;5053347;28;20033;-67
2022/08/16 00:55:55;;;;;;;11.65;9.30;;;17.20;99.90;;;;;;5053249;28;20106;-67
2022/08/16 00:58:23;;;;;;;11.55;8.85;;;17.00;99.90;;;;;;5053251;28;20045;-66
2022/08/16 01:00:49;;;;;;;11.50;8.98;;;17.10;99.90;;;;;;5052654;28;20025;-66
2022/08/16 01:03:18;;;;;;;12.77;9.52;;;17.00;99.90;;;;;;5053711;28;20029;-67
2022/08/16 01:05:45;;;;;;;12.25;9.50;;;17.20;99.90;;;;;;5052875;28;20024;-67
2022/08/16 01:08:13;;;;;;;10.20;9.18;;;17.20;99.90;;;;;;5053048;28;20082;-67
2022/08/16 01:10:40;;;;;;;13.88;9.82;;;17.10;99.90;;;;;;5053094;28;20029;-67
2022/08/16 01:13:12;;;;;;;12.60;9.82;;;16.90;99.90;;;;;;5052945;28;20025;-66
2022/08/16 01:15:42;;;;;;;11.38;9.57;;;16.90;99.90;;;;;;5052914;28;20036;-67
2022/08/16 01:18:10;;;;;;;10.18;9.20;;;16.90;99.90;;;;;;5052651;28;20442;-67
2022/08/16 01:20:41;;;;;;;10.60;9.05;;;16.90;99.90;;;;;;5051490;28;20057;-67
2022/08/16 01:23:21;;;;;;;13.43;8.85;;;16.90;99.90;;;;;;5053149;28;20112;-67
2022/08/16 01:25:51;;;;;;;11.45;9.05;;;17.00;99.90;;;;;;5052743;28;20055;-66
2022/08/16 01:28:19;;;;;;;10.15;8.98;;;17.00;99.90;;;;;;5052737;28;20071;-66
2022/08/16 01:30:51;;;;;;;11.52;8.95;;;16.90;99.90;;;;;;5052295;28;20025;-67
2022/08/16 01:33:17;;;;;;;13.00;9.52;;;16.90;99.90;;;;;;5052509;28;20080;-67
2022/08/16 01:35:49;;;;;;;10.77;9.68;;;16.90;99.90;;;;;;5052964;28;20370;-66
2022/08/16 01:38:26;;;;;;;11.75;9.13;;;16.80;99.90;;;;;;5052343;28;20485;-66
2022/08/16 01:40:56;;;;;;;11.77;9.77;;;16.60;99.90;;;;;;5052153;28;20029;-67
2022/08/16 01:43:23;;;;;;;11.30;9.43;;;16.60;99.90;;;;;;5052202;28;20052;-67
2022/08/16 01:45:55;;;;;;;11.00;9.65;;;16.70;99.90;;;;;;5051915;28;20033;-67
2022/08/16 01:48:25;;;;;;;12.52;9.35;;;16.60;99.90;;;;;;5052119;28;20021;-66
2022/08/16 01:50:52;;;;;;;12.23;8.82;;;16.70;99.90;;;;;;5052647;28;20032;-66
2022/08/16 01:53:18;;;;;;;13.40;9.80;;;16.60;99.90;;;;;;5052322;28;20108;-67
2022/08/16 01:55:44;;;;;;;11.38;10.18;;;16.70;99.90;;;;;;5051955;28;20078;-66
2022/08/16 01:58:12;;;;;;;11.77;9.80;;;16.70;99.90;;;;;;5052258;28;20438;-67
2022/08/16 02:00:37;;;;;;;11.30;10.20;;;16.60;99.90;;;;;;5051898;28;20500;-67
2022/08/16 02:03:03;;;;;;;14.65;11.13;;;16.50;99.90;;;;;;5052098;28;20021;-67
2022/08/16 02:05:29;;;;;;;13.70;9.60;;;16.50;99.90;;;;;;5052544;28;20037;-67
2022/08/16 02:07:55;;;;;;;10.57;9.40;;;16.50;99.90;;;;;;5052145;28;20116;-67
2022/08/16 02:10:20;;;;;;;11.07;9.00;;;16.60;99.90;;;;;;5052156;28;20025;-67
2022/08/16 02:12:46;;;;;;;13.52;9.70;;;16.60;99.90;;;;;;5052083;28;20044;-67
2022/08/16 02:15:14;;;;;;;11.85;9.82;;;16.60;99.90;;;;;;5051706;28;20470;-67
2022/08/16 02:17:39;;;;;;;10.40;9.10;;;16.60;99.90;;;;;;5051933;28;20478;-67
2022/08/16 02:20:06;;;;;;;11.25;9.13;;;16.60;99.90;;;;;;5052077;28;20040;-67
2022/08/16 02:22:33;;;;;;;9.77;8.77;;;16.60;99.90;;;;;;5051994;28;20120;-67
2022/08/16 02:24:59;;;;;;;11.32;9.52;;;16.50;99.90;;;;;;5052410;28;20396;-67
2022/08/16 02:27:24;;;;;;;10.38;9.38;;;16.40;99.90;;;;;;5051880;28;20135;-67
2022/08/16 02:29:50;;;;;;;12.55;10.00;;;16.50;99.90;;;;;;5051788;28;20363;-67
2022/08/16 02:32:16;;;;;;;10.15;9.15;;;16.50;99.90;;;;;;5051883;28;20060;-67
2022/08/16 02:34:43;;;;;;;10.38;9.23;;;16.50;99.90;;;;;;5051897;28;20025;-67
2022/08/16 02:37:09;;;;;;;10.68;9.27;;;16.60;99.90;;;;;;5052104;28;20489;-67
2022/08/16 02:39:35;;;;;;;12.45;10.05;;;16.60;99.90;;;;;;5051699;28;20028;-67
2022/08/16 02:42:01;;;;;;;11.05;10.00;;;16.60;99.90;;;;;;5051647;28;20486;-67
2022/08/16 02:44:27;;;;;;;12.35;9.85;;;16.70;99.90;;;;;;5051693;28;20071;-67
2022/08/16 02:46:53;;;;;;;10.10;9.20;;;16.70;99.90;;;;;;5051768;28;20067;-67
2022/08/16 02:49:19;;;;;;;11.75;9.68;;;16.70;99.90;;;;;;5051991;28;20056;-67
2022/08/16 02:51:45;;;;;;;12.82;11.40;;;16.80;99.90;;;;;;5051699;28;20044;-67
2022/08/16 02:54:13;;;;;;;11.45;9.60;;;16.70;99.90;;;;;;5051984;28;20056;-67
2022/08/16 02:56:40;;;;;;;11.93;10.40;;;16.80;99.90;;;;;;5051640;28;20027;-67
2022/08/16 02:59:06;;;;;;;12.85;11.48;;;16.80;99.90;;;;;;5051378;28;20029;-67
2022/08/16 03:01:33;;;;;;;13.07;11.25;;;16.90;99.90;;;;;;5054304;28;20116;-67
2022/08/16 03:04:01;;;;;;;14.68;11.50;;;16.90;99.90;;;;;;5055996;28;20064;-67
2022/08/16 03:06:27;;;;;;;10.52;9.43;;;16.70;99.90;;;;;;5055000;28;20108;-67
2022/08/16 03:08:53;;;;;;;13.77;12.40;;;16.80;99.90;;;;;;5055795;28;20140;-67
2022/08/16 03:11:20;;;;;;;15.55;13.95;;;16.90;99.90;;;;;;5054922;28;20029;-66
2022/08/16 03:13:51;;;;;;;14.60;13.10;;;16.90;99.90;;;;;;5055364;28;20020;-67
2022/08/16 03:16:18;;;;;;;15.65;13.82;;;16.90;99.90;;;;;;5055094;28;20346;-66
2022/08/16 03:18:44;;;;;;;16.75;15.00;;;16.80;99.90;;;;;;5037501;28;20390;-67
2022/08/16 03:21:11;;;;;;;18.33;16.40;;;16.80;99.90;;;;;;5055459;28;20087;-67
2022/08/16 03:23:38;;;;;;;25.13;22.55;;;16.80;99.90;;;;;;5055036;28;20033;-67
2022/08/16 03:26:04;;;;;;;25.95;23.30;;;16.80;99.90;;;;;;5055281;28;20052;-67
2022/08/16 03:28:30;;;;;;;23.38;21.15;;;16.70;99.90;;;;;;5054965;28;20429;-66
2022/08/16 03:30:55;;;;;;;26.83;24.05;;;16.60;99.90;;;;;;5055131;28;20036;-67
2022/08/16 03:33:21;;;;;;;30.77;27.58;;;16.60;99.90;;;;;;5055100;28;20114;-67
2022/08/16 03:35:47;;;;;;;32.55;29.23;;;16.60;99.90;;;;;;5054923;28;20489;-67
2022/08/16 03:38:15;;;;;;;32.08;28.30;;;16.70;99.90;;;;;;5054773;28;20116;-67
2022/08/16 03:40:41;;;;;;;33.72;30.52;;;16.60;99.90;;;;;;5054236;28;20037;-67
2022/08/16 03:43:11;;;;;;;34.90;31.40;;;16.70;99.90;;;;;;5054591;28;20490;-66
2022/08/16 03:45:39;;;;;;;34.47;31.23;;;16.80;99.90;;;;;;5055344;28;20021;-67
2022/08/16 03:48:06;;;;;;;34.55;30.83;;;16.80;99.90;;;;;;5054619;28;20024;-66
2022/08/16 03:50:34;;;;;;;31.33;28.15;;;16.70;99.90;;;;;;5054631;28;20108;-66
2022/08/16 03:53:01;;;;;;;29.35;26.45;;;16.80;99.90;;;;;;5054500;28;20176;-67
2022/08/16 03:55:27;;;;;;;28.35;25.50;;;16.80;99.90;;;;;;5054241;28;20052;-66
2022/08/16 03:57:54;;;;;;;20.83;18.73;;;16.80;99.90;;;;;;5054508;28;20449;-66
2022/08/16 04:00:23;;;;;;;21.08;19.08;;;16.80;99.90;;;;;;5054423;28;20083;-66
2022/08/16 04:02:49;;;;;;;16.95;15.35;;;16.70;99.90;;;;;;5054316;28;20125;-66
2022/08/16 04:05:16;;;;;;;16.83;15.32;;;16.70;99.90;;;;;;5054350;28;20028;-66
2022/08/16 04:07:43;;;;;;;18.65;16.83;;;16.80;99.90;;;;;;5054414;28;20075;-66
2022/08/16 04:10:11;;;;;;;20.75;18.65;;;16.80;99.90;;;;;;5054033;28;20025;-66
2022/08/16 04:12:37;;;;;;;19.88;17.98;;;16.90;99.90;;;;;;5053292;28;20025;-66
2022/08/16 04:15:07;;;;;;;18.90;16.95;;;16.90;99.90;;;;;;5054225;28;20021;-66
2022/08/16 04:17:33;;;;;;;17.35;15.73;;;16.90;99.90;;;;;;5054099;28;20033;-66
2022/08/16 04:19:59;;;;;;;21.38;19.35;;;16.90;99.90;;;;;;5054047;28;20105;-66
2022/08/16 04:22:25;;;;;;;23.70;21.33;;;16.90;99.90;;;;;;5054100;28;20040;-65
2022/08/16 04:24:51;;;;;;;24.67;22.45;;;16.90;99.90;;;;;;5053536;28;20025;-66
2022/08/16 04:27:17;;;;;;;24.45;21.92;;;16.90;99.90;;;;;;5054387;28;20086;-66
2022/08/16 04:29:42;;;;;;;25.40;23.00;;;16.90;99.90;;;;;;5053879;28;20025;-65
2022/08/16 04:32:08;;;;;;;23.65;21.42;;;16.90;99.90;;;;;;5052628;28;20028;-66
2022/08/16 04:34:37;;;;;;;23.60;21.20;;;16.80;99.90;;;;;;5053948;28;20132;-66
2022/08/16 04:37:03;;;;;;;22.65;20.33;;;16.80;99.90;;;;;;5053728;28;20029;-66
2022/08/16 04:39:31;;;;;;;20.20;18.27;;;16.70;99.90;;;;;;5053167;28;20035;-66
2022/08/16 04:41:57;;;;;;;19.58;17.63;;;16.80;99.90;;;;;;5054050;28;20477;-66
2022/08/16 04:44:23;;;;;;;18.23;16.55;;;16.80;99.90;;;;;;5053494;28;20104;-65
2022/08/16 04:46:51;;;;;;;21.40;19.40;;;16.80;99.90;;;;;;5053651;28;20090;-65
2022/08/16 04:49:17;;;;;;;23.45;21.15;;;16.80;99.90;;;;;;5053655;28;20032;-65
2022/08/16 04:51:42;;;;;;;19.35;17.35;;;16.80;99.90;;;;;;5053524;28;20029;-66
2022/08/16 04:54:09;;;;;;;18.00;16.10;;;16.90;99.90;;;;;;5053185;28;20032;-65
2022/08/16 04:56:35;;;;;;;17.80;16.15;;;16.80;99.90;;;;;;5053382;28;20363;-65
2022/08/16 04:59:02;;;;;;;16.42;14.88;;;16.70;99.90;;;;;;5053451;28;20064;-65
2022/08/16 05:01:28;;;;;;;19.42;17.58;;;16.60;99.90;;;;;;5053310;28;20031;-66
2022/08/16 05:03:53;;;;;;;18.02;16.20;;;16.60;99.90;;;;;;5053620;28;20112;-65
2022/08/16 05:06:19;;;;;;;16.88;15.18;;;16.70;99.90;;;;;;5053284;28;20029;-66
2022/08/16 05:08:45;;;;;;;16.65;15.00;;;16.70;99.90;;;;;;5052888;28;20029;-65
2022/08/16 05:11:13;;;;;;;16.25;14.85;;;16.70;99.90;;;;;;5053222;28;20032;-65
2022/08/16 05:13:42;;;;;;;12.23;11.15;;;16.60;99.90;;;;;;5053143;28;20040;-65
2022/08/16 05:16:17;;;;;;;14.82;13.32;;;16.50;99.90;;;;;;5052989;28;20490;-66
2022/08/16 05:18:42;;;;;;;11.30;10.10;;;16.60;99.90;;;;;;5052857;28;20047;-65
2022/08/16 05:21:08;;;;;;;14.75;13.40;;;16.60;99.90;;;;;;5052716;28;20107;-64
2022/08/16 05:23:34;;;;;;;12.52;11.40;;;16.60;99.90;;;;;;5052595;28;20104;-65
2022/08/16 05:26:00;;;;;;;14.57;13.18;;;16.60;99.90;;;;;;5052885;28;20100;-65
2022/08/16 05:28:26;;;;;;;16.25;14.75;;;16.70;99.90;;;;;;5052790;28;20428;-65
2022/08/16 05:30:53;;;;;;;15.70;14.27;;;16.70;99.90;;;;;;5052729;28;20033;-65
2022/08/16 05:33:20;;;;;;;16.27;14.68;;;16.60;99.90;;;;;;5053096;28;20045;-65
2022/08/16 05:35:47;;;;;;;15.15;13.70;;;16.60;99.90;;;;;;5052469;28;20094;-65
2022/08/16 05:38:14;;;;;;;14.18;12.85;;;16.60;99.90;;;;;;5052178;28;20017;-65
2022/08/16 05:40:39;;;;;;;13.32;12.10;;;16.60;99.90;;;;;;5052501;28;20041;-66
2022/08/16 05:43:05;;;;;;;12.68;11.40;;;16.70;99.90;;;;;;5052419;28;20040;-65
2022/08/16 05:45:31;;;;;;;14.27;12.88;;;16.60;99.90;;;;;;5052404;28;20044;-66
2022/08/16 05:47:57;;;;;;;15.30;13.70;;;16.70;99.90;;;;;;5052802;28;20025;-66
2022/08/16 05:50:23;;;;;;;15.80;14.35;;;16.70;99.90;;;;;;5052202;28;20028;-66
2022/08/16 05:52:49;;;;;;;13.73;12.32;;;16.80;99.90;;;;;;5051758;28;20029;-66
2022/08/16 05:55:15;;;;;;;15.00;13.50;;;16.60;99.90;;;;;;5052525;28;20025;-66
2022/08/16 05:57:41;;;;;;;14.95;13.55;;;16.70;99.90;;;;;;5052071;28;20036;-66
2022/08/16 06:00:10;;;;;;;15.73;14.27;;;16.70;99.90;;;;;;5052145;28;20107;-66
2022/08/16 06:02:36;;;;;;;15.93;14.43;;;16.80;99.90;;;;;;5051968;28;20116;-66
2022/08/16 06:05:03;;;;;;;16.45;14.93;;;16.80;99.90;;;;;;5051709;28;20100;-66
2022/08/16 06:07:30;;;;;;;16.65;14.95;;;16.80;99.90;;;;;;5051604;28;20113;-66
2022/08/16 06:09:57;;;;;;;16.60;14.98;;;16.90;99.90;;;;;;5052052;28;20028;-66
2022/08/16 06:12:24;;;;;;;17.05;15.48;;;16.90;99.90;;;;;;5052066;28;20025;-66
2022/08/16 06:14:50;;;;;;;17.65;14.57;;;16.80;99.90;;;;;;5052210;28;20063;-66
2022/08/16 06:17:16;;;;;;;19.15;15.80;;;16.80;99.90;;;;;;5051751;28;20092;-66
2022/08/16 06:19:42;;;;;;;18.92;15.20;;;16.80;99.90;;;;;;5051738;28;20086;-66
2022/08/16 06:22:09;;;;;;;17.65;15.82;;;16.80;99.90;;;;;;5051427;28;20112;-66
2022/08/16 06:24:35;;;;;;;18.30;16.60;;;16.90;99.90;;;;;;5051930;28;20047;-66
2022/08/16 06:27:02;;;;;;;15.95;14.20;;;16.90;99.90;;;;;;5051673;28;20393;-65
2022/08/16 06:29:27;;;;;;;16.92;15.43;;;16.90;99.90;;;;;;5051717;28;20029;-66
2022/08/16 06:31:53;;;;;;;18.17;16.40;;;16.90;99.90;;;;;;5051702;28;20146;-65
2022/08/16 06:34:19;;;;;;;17.02;15.18;;;16.90;99.90;;;;;;5051542;28;20378;-65
2022/08/16 06:36:44;;;;;;;18.67;16.40;;;17.00;99.90;;;;;;5054953;28;20025;-65
2022/08/16 06:39:10;;;;;;;18.33;16.48;;;17.10;99.90;;;;;;5055705;28;20055;-65
2022/08/16 06:41:36;;;;;;;17.60;16.05;;;17.20;99.90;;;;;;5055992;28;20032;-65
2022/08/16 06:44:02;;;;;;;15.73;14.23;;;17.30;99.90;;;;;;5055799;28;20045;-66
2022/08/16 06:46:33;;;;;;;15.80;13.48;;;17.40;99.90;;;;;;5055653;28;20021;-66
2022/08/16 06:49:07;;;;;;;16.02;14.43;;;17.40;99.90;;;;;;5055114;28;20029;-66
2022/08/16 06:51:33;;;;;;;17.65;15.82;;;17.50;99.90;;;;;;5055888;28;20029;-65
2022/08/16 06:54:00;;;;;;;14.00;12.60;;;17.60;99.90;;;;;;5055543;28;20074;-66
2022/08/16 06:56:26;;;;;;;17.45;14.98;;;17.70;99.90;;;;;;5055466;28;20032;-66
2022/08/16 06:58:52;;;;;;;15.55;14.02;;;17.80;99.90;;;;;;5055334;28;20035;-66
2022/08/16 07:01:20;;;;;;;16.17;14.63;;;17.90;99.90;;;;;;5055333;28;20497;-66
2022/08/16 07:03:46;;;;;;;15.07;13.57;;;18.00;99.90;;;;;;5055004;28;20431;-66
2022/08/16 07:06:12;;;;;;;15.55;13.93;;;18.10;99.90;;;;;;5055432;28;20017;-66
2022/08/16 07:08:41;;;;;;;12.70;11.50;;;18.10;99.90;;;;;;5055260;28;20051;-66
2022/08/16 07:11:07;;;;;;;13.55;12.15;;;18.10;99.90;;;;;;5055240;28;20025;-66
2022/08/16 07:13:33;;;;;;;16.33;14.63;;;18.20;99.90;;;;;;5055289;28;20028;-66
2022/08/16 07:15:59;;;;;;;13.98;12.40;;;18.30;99.90;;;;;;5055294;28;20446;-66
2022/08/16 07:18:25;;;;;;;13.25;11.80;;;18.40;99.90;;;;;;5055273;28;20017;-66
2022/08/16 07:20:52;;;;;;;15.70;14.18;;;18.50;99.90;;;;;;5055021;28;20121;-66
2022/08/16 07:23:19;;;;;;;13.43;12.00;;;18.60;99.90;;;;;;5055101;28;20091;-66
2022/08/16 07:25:45;;;;;;;15.80;14.13;;;18.70;99.90;;;;;;5054997;28;20132;-66
2022/08/16 07:28:13;;;;;;;15.50;13.40;;;18.90;99.90;;;;;;5055018;28;20025;-66
2022/08/16 07:30:39;;;;;;;14.52;13.27;;;19.00;99.90;;;;;;5055198;28;20079;-66
2022/08/16 07:33:05;;;;;;;15.82;13.93;;;19.10;99.90;;;;;;5054570;28;20075;-66
2022/08/16 07:35:31;;;;;;;15.88;13.82;;;19.30;99.90;;;;;;5054837;28;20037;-66
2022/08/16 07:37:58;;;;;;;17.45;14.95;;;19.30;99.90;;;;;;5054816;28;20025;-66
2022/08/16 07:40:24;;;;;;;15.90;13.70;;;19.40;99.90;;;;;;5055047;28;20025;-66
2022/08/16 07:42:51;;;;;;;14.73;13.32;;;19.40;99.90;;;;;;5054558;28;20055;-66
2022/08/16 07:45:16;;;;;;;15.40;13.07;;;19.50;99.90;;;;;;5054615;28;20045;-66
2022/08/16 07:47:43;;;;;;;14.85;12.85;;;19.60;99.90;;;;;;5053955;28;20033;-66
2022/08/16 07:50:11;;;;;;;16.60;14.15;;;19.60;99.90;;;;;;5054634;28;20049;-66
2022/08/16 07:52:36;;;;;;;15.40;13.95;;;19.70;99.90;;;;;;5054648;28;20549;-67
2022/08/16 07:55:03;;;;;;;14.60;13.18;;;19.70;99.90;;;;;;5053752;28;20104;-66
2022/08/16 07:57:28;;;;;;;15.45;13.75;;;19.60;99.90;;;;;;5054419;28;20072;-66
2022/08/16 07:59:54;;;;;;;15.45;13.82;;;19.60;99.90;;;;;;5054345;28;20057;-66
2022/08/16 08:02:20;;;;;;;15.18;13.75;;;19.60;99.90;;;;;;5054225;28;20037;-66
2022/08/16 08:04:46;;;;;;;18.77;13.98;;;19.60;99.90;;;;;;5054352;28;20050;-67
2022/08/16 08:07:12;;;;;;;17.73;14.15;;;19.70;99.90;;;;;;5054205;28;20489;-66
2022/08/16 08:09:38;;;;;;;14.98;12.57;;;19.70;99.90;;;;;;5054212;28;20414;-66
2022/08/16 08:12:04;;;;;;;15.27;13.75;;;19.70;99.90;;;;;;5053794;28;20043;-66
2022/08/16 08:14:30;;;;;;;15.32;13.82;;;19.80;99.90;;;;;;5054069;28;20104;-66
2022/08/16 08:16:55;;;;;;;17.67;14.32;;;19.80;99.90;;;;;;5054028;28;20215;-66
2022/08/16 08:19:22;;;;;;;15.32;13.90;;;19.90;99.90;;;;;;5054082;28;20013;-66
2022/08/16 08:21:48;;;;;;;15.52;14.05;;;20.00;99.90;;;;;;5053782;28;20069;-66
2022/08/16 08:24:14;;;;;;;14.88;13.27;;;20.00;99.90;;;;;;5053990;28;20478;-68
2022/08/16 08:26:41;;;;;;;15.98;14.13;;;20.00;99.90;;;;;;5053607;28;20039;-67
2022/08/16 08:29:06;;;;;;;14.98;13.35;;;20.00;99.90;;;;;;5053774;28;20025;-67
2022/08/16 08:31:35;;;;;;;13.85;12.48;;;20.00;99.90;;;;;;5053365;28;20021;-67
2022/08/16 08:34:03;;;;;;;14.88;13.38;;;20.10;99.90;;;;;;5053674;28;20029;-67
2022/08/16 08:36:32;;;;;;;15.05;13.50;;;20.10;99.90;;;;;;5053629;28;20163;-67
2022/08/16 08:38:58;;;;;;;17.45;14.07;;;20.10;99.90;;;;;;5053807;28;20477;-67
2022/08/16 08:41:27;;;;;;;15.73;14.05;;;20.20;99.90;;;;;;5053483;28;20040;-67
2022/08/16 08:43:54;;;;;;;14.98;13.40;;;20.10;99.90;;;;;;5053308;28;20054;-67
2022/08/16 08:46:20;;;;;;;17.73;14.30;;;20.20;99.90;;;;;;5052954;28;20543;-68
2022/08/16 08:48:46;;;;;;;15.70;13.55;;;20.30;99.90;;;;;;5053834;28;20013;-67
2022/08/16 08:51:12;;;;;;;15.02;13.52;;;20.30;99.90;;;;;;5053415;28;20478;-67
2022/08/16 08:53:38;;;;;;;16.73;13.20;;;20.40;99.90;;;;;;5053092;28;20025;-67
2022/08/16 08:56:07;;;;;;;15.30;13.68;;;20.50;99.90;;;;;;5053443;28;20036;-68
2022/08/16 08:58:35;;;;;;;15.00;13.50;;;20.60;99.90;;;;;;5052476;28;20104;-67
2022/08/16 09:01:01;;;;;;;16.15;13.43;;;20.70;99.90;;;;;;5052714;28;20040;-67
2022/08/16 09:03:27;;;;;;;17.05;13.40;;;20.90;99.90;;;;;;5053005;28;20033;-67
2022/08/16 09:05:53;;;;;;;14.48;13.02;;;21.10;99.90;;;;;;5051816;28;20405;-67
2022/08/16 09:08:19;;;;;;;14.32;12.90;;;21.10;99.90;;;;;;5053029;28;20040;-67
2022/08/16 09:10:45;;;;;;;14.30;12.77;;;21.30;99.90;;;;;;5053090;28;20052;-67
2022/08/16 09:13:11;;;;;;;15.27;12.43;;;21.40;99.90;;;;;;5053007;28;20033;-67
2022/08/16 09:15:36;;;;;;;14.23;12.15;;;21.50;99.90;;;;;;5052776;28;20055;-67
2022/08/16 09:18:04;;;;;;;14.40;12.25;;;21.60;99.90;;;;;;5052627;28;20108;-67
2022/08/16 09:20:30;;;;;;;13.88;12.48;;;21.60;99.90;;;;;;5052965;28;20032;-68
2022/08/16 09:22:57;;;;;;;15.55;12.32;;;21.80;99.90;;;;;;5052648;28;20039;-67
2022/08/16 09:25:24;;;;;;;12.73;11.27;;;21.80;99.90;;;;;;5052693;28;20090;-67
2022/08/16 09:27:50;;;;;;;14.20;11.57;;;22.10;99.90;;;;;;5053033;28;20508;-68
2022/08/16 09:30:16;;;;;;;13.52;12.13;;;22.40;99.90;;;;;;5051012;28;20028;-68
2022/08/16 09:32:42;;;;;;;11.70;10.48;;;22.50;99.90;;;;;;5052605;28;20025;-68
2022/08/16 09:35:08;;;;;;;15.02;10.77;;;22.60;99.90;;;;;;5052152;28;20130;-68
2022/08/16 09:37:34;;;;;;;11.15;10.00;;;22.70;99.90;;;;;;5052699;28;20060;-68
2022/08/16 09:40:02;;;;;;;12.95;9.98;;;23.00;99.90;;;;;;5052408;28;20031;-68
2022/08/16 09:42:28;;;;;;;14.02;9.43;;;23.20;99.90;;;;;;5052438;28;20051;-68
2022/08/16 09:44:55;;;;;;;12.40;9.70;;;23.30;99.90;;;;;;5051920;28;20048;-68
2022/08/16 09:47:21;;;;;;;10.57;9.48;;;23.40;99.90;;;;;;5052774;28;20120;-67
2022/08/16 09:49:47;;;;;;;14.23;9.63;;;23.50;99.90;;;;;;5052329;28;20440;-68
2022/08/16 09:52:12;;;;;;;13.82;8.90;;;23.70;99.90;;;;;;5052428;28;20031;-68
2022/08/16 09:54:39;;;;;;;11.35;8.25;;;23.80;99.90;;;;;;5052127;28;20375;-68
2022/08/16 09:57:05;;;;;;;10.70;8.43;;;23.90;99.90;;;;;;5052150;28;20021;-68
2022/08/16 09:59:32;;;;;;;11.52;8.68;;;24.00;99.90;;;;;;5051847;28;20446;-68
2022/08/16 10:02:00;;;;;;;13.35;8.02;;;24.00;99.90;;;;;;5052113;28;20075;-68
2022/08/16 10:04:26;;;;;;;11.43;7.90;;;24.20;99.90;;;;;;5052184;28;20040;-67
2022/08/16 10:06:56;;;;;;;10.68;7.53;;;24.20;99.90;;;;;;5051935;28;20025;-67
2022/08/16 10:09:22;;;;;;;10.73;7.68;;;24.40;99.90;;;;;;5052391;28;20044;-68
2022/08/16 10:14:33;;;;;;;10.55;6.57;;;24.80;99.90;;;;;;5052135;28;20071;-68
2022/08/16 10:17:01;;;;;;;8.73;6.05;;;25.00;99.90;;;;;;5051974;28;20113;-68
2022/08/16 10:19:27;;;;;;;10.77;6.22;;;25.10;99.90;;;;;;5052036;28;20056;-68
2022/08/16 10:21:54;;;;;;;8.70;5.85;;;25.30;99.90;;;;;;5052331;28;20033;-68
2022/08/16 10:24:20;;;;;;;9.80;6.10;;;25.50;99.90;;;;;;5051923;28;20489;-68
2022/08/16 10:26:46;;;;;;;8.35;5.85;;;25.80;99.90;;;;;;5051555;28;20036;-68
2022/08/16 10:29:13;;;;;;;10.20;6.07;;;26.10;99.90;;;;;;5052035;28;20024;-68
2022/08/16 10:31:39;;;;;;;9.68;6.53;;;26.10;99.90;;;;;;5052094;28;20021;-68
2022/08/16 10:34:05;;;;;;;9.73;6.30;;;26.20;99.90;;;;;;5051972;28;20075;-68
2022/08/16 10:36:31;;;;;;;11.45;6.15;;;26.20;99.90;;;;;;5051902;28;20017;-68
2022/08/16 10:38:56;;;;;;;8.57;6.22;;;26.30;99.90;;;;;;5051688;28;20025;-68
2022/08/16 10:41:22;;;;;;;13.35;6.20;;;26.40;99.90;;;;;;5051354;28;20028;-68
2022/08/16 10:43:49;;;;;;;9.00;6.10;;;26.30;99.90;;;;;;5051720;28;20045;-68
2022/08/16 10:46:14;;;;;;;8.85;5.95;;;26.40;99.90;;;;;;5052095;28;20509;-69
2022/08/16 10:48:43;;;;;;;11.10;6.13;;;26.60;99.90;;;;;;5051651;28;20103;-68
2022/08/16 10:51:09;;;;;;;11.98;6.38;;;26.70;99.90;;;;;;5051843;28;20026;-68
2022/08/16 10:53:36;;;;;;;11.57;6.95;;;26.80;99.90;;;;;;5051720;28;20025;-68
2022/08/16 10:56:08;;;;;;;10.30;6.07;;;26.90;99.90;;;;;;5050000;28;20394;-68
2022/08/16 10:58:34;;;;;;;8.45;6.20;;;27.00;99.90;;;;;;5051680;28;20036;-69
2022/08/16 11:01:01;;;;;;;10.40;5.85;;;27.00;99.90;;;;;;5051881;28;20053;-69
2022/08/16 11:03:28;;;;;;;8.93;5.90;;;27.10;99.90;;;;;;5051644;28;20098;-68
2022/08/16 11:05:54;;;;;;;7.55;6.18;;;27.20;99.90;;;;;;5051478;28;20025;-69
2022/08/16 11:08:21;;;;;;;11.95;6.82;;;27.30;99.90;;;;;;5051515;28;20159;-69
2022/08/16 11:10:48;;;;;;;8.75;6.32;;;27.30;99.90;;;;;;5051147;28;20033;-68
2022/08/16 11:13:25;;;;;;;10.55;5.88;;;27.40;99.90;;;;;;5051861;28;20405;-69
2022/08/16 11:15:51;;;;;;;10.60;6.60;;;27.40;99.90;;;;;;5051499;28;20013;-68
2022/08/16 11:18:17;;;;;;;10.20;6.28;;;27.40;99.90;;;;;;5051390;28;20029;-68
2022/08/16 11:20:44;;;;;;;10.63;5.63;;;27.40;99.90;;;;;;5050491;28;20036;-68
2022/08/16 11:23:11;;;;;;;9.88;5.13;;;27.50;99.90;;;;;;5054849;28;20115;-68
2022/08/16 11:25:37;;;;;;;10.85;5.20;;;27.40;99.90;;;;;;5054721;28;20020;-68
2022/08/16 11:28:06;;;;;;;8.52;5.10;;;27.40;99.90;;;;;;5055431;28;20037;-68
2022/08/16 11:30:33;;;;;;;10.65;5.55;;;27.50;99.90;;;;;;5055253;28;20023;-68
2022/08/16 11:33:01;;;;;;;10.52;5.10;;;27.60;99.90;;;;;;5053684;28;20104;-69
2022/08/16 11:35:30;;;;;;;10.25;5.38;;;27.70;99.90;;;;;;5054934;28;20025;-69
2022/08/16 11:38:13;;;;;;;10.05;5.18;;;27.70;99.80;;;;;;5054922;28;20031;-68
2022/08/16 11:41:00;;;;;;;9.07;5.57;;;27.90;99.70;;;;;;5054599;28;20104;-68
2022/08/16 11:43:32;;;;;;;8.90;5.60;;;27.90;99.90;;;;;;5054695;28;20095;-69
2022/08/16 11:46:01;;;;;;;10.35;6.07;;;27.90;99.90;;;;;;5054826;28;20457;-69
2022/08/16 11:48:29;;;;;;;8.90;6.03;;;28.00;99.90;;;;;;5054793;28;20501;-68
2022/08/16 11:50:55;;;;;;;9.82;6.10;;;28.00;99.90;;;;;;5054726;28;20053;-70
2022/08/16 11:53:22;;;;;;;12.02;6.15;;;28.20;99.90;;;;;;5054425;28;20017;-68
2022/08/16 11:55:49;;;;;;;9.90;6.57;;;28.20;99.90;;;;;;5054515;28;20075;-68
2022/08/16 11:58:15;;;;;;;9.63;6.32;;;28.10;99.90;;;;;;5054447;28;20033;-68
2022/08/16 12:00:43;;;;;;;12.07;6.63;;;28.40;99.90;;;;;;5054563;28;20032;-68
2022/08/16 12:03:09;;;;;;;10.63;6.45;;;28.30;99.90;;;;;;5054283;28;20162;-68
2022/08/16 12:05:37;;;;;;;12.15;6.75;;;28.40;99.90;;;;;;5054852;28;20032;-68
2022/08/16 12:08:07;;;;;;;8.70;5.93;;;28.40;99.90;;;;;;5053847;28;20028;-68
2022/08/16 12:10:34;;;;;;;10.80;6.50;;;28.40;99.90;;;;;;5054521;28;20029;-69
2022/08/16 12:13:00;;;;;;;10.48;6.15;;;28.30;99.90;;;;;;5054192;28;20057;-68
2022/08/16 12:15:26;;;;;;;12.75;6.72;;;28.30;99.90;;;;;;5054327;28;20106;-69
2022/08/16 12:17:53;;;;;;;11.35;6.80;;;28.30;99.90;;;;;;5054228;28;20440;-68
2022/08/16 12:20:24;;;;;;;9.55;5.03;;;28.30;99.90;;;;;;5054198;28;20034;-68
2022/08/16 12:22:51;;;;;;;9.02;5.57;;;28.40;99.90;;;;;;5053943;28;20045;-68
2022/08/16 12:25:18;;;;;;;13.20;5.10;;;28.30;99.90;;;;;;5054164;28;20025;-68
2022/08/16 12:27:46;;;;;;;14.00;5.43;;;28.10;99.90;;;;;;5054057;28;20029;-68
2022/08/16 12:30:15;;;;;;;9.07;5.20;;;28.00;99.90;;;;;;5053924;28;20039;-69
2022/08/16 12:32:41;;;;;;;11.32;5.00;;;28.10;99.90;;;;;;5053105;28;20032;-68
2022/08/16 12:35:15;;;;;;;10.98;5.60;;;28.10;99.90;;;;;;5053537;28;20032;-68